sensor_id;sensor_type;location;lat;lon;timestamp;pressure;altitude;pressure_sealevel;temperature;humidity
60437;BME280;46289;51.992;4.498;2022-09-09T00:00:32;100836.13;;;14.87;100.00
60437;BME280;46289;51.992;4.498;2022-09-09T00:03:14;100840.53;;;14.83;100.00
60437;BME280;46289;51.992;4.498;2022-09-09T00:05:53;100833.50;;;14.82;100.00
60437;BME280;46289;51.992;4.498;2022-09-09T00:08:33;100830.88;;;14.82;100.00
60437;BME280;46289;51.992;4.498;2022-09-09T00:11:11;100830.88;;;14.78;100.00
60437;BME280;46289;51.992;4.498;2022-09-09T00:13:47;100827.38;;;14.77;100.00
60437;BME280;46289;51.992;4.498;2022-09-09T00:16:19;100816.81;;;14.74;100.00
60437;BME280;46289;51.992;4.498;2022-09-09T00:18:57;100817.69;;;14.73;100.00
60437;BME280;46289;51.992;4.498;2022-09-09T00:21:33;100815.94;;;14.72;100.00
60437;BME280;46289;51.992;4.498;2022-09-09T00:24:11;100815.06;;;14.70;100.00
60437;BME280;46289;51.992;4.498;2022-09-09T00:26:48;100820.34;;;14.68;100.00
60437;BME280;46289;51.992;4.498;2022-09-09T00:29:27;100820.34;;;14.70;100.00
60437;BME280;46289;51.992;4.498;2022-09-09T00:32:11;100812.44;;;14.67;100.00
60437;BME280;46289;51.992;4.498;2022-09-09T00:34:46;100808.06;;;14.64;100.00
60437;BME280;46289;51.992;4.498;2022-09-09T00:37:18;100812.47;;;14.62;100.00
60437;BME280;46289;51.992;4.498;2022-09-09T00:39:49;100802.78;;;14.63;100.00
60437;BME280;46289;51.992;4.498;2022-09-09T00:42:24;100793.13;;;14.59;100.00
60437;BME280;46289;51.992;4.498;2022-09-09T00:45:02;100804.56;;;14.56;100.00
60437;BME280;46289;51.992;4.498;2022-09-09T00:47:46;100801.97;;;14.53;100.00
60437;BME280;46289;51.992;4.498;2022-09-09T00:50:33;100801.09;;;14.51;100.00
60437;BME280;46289;51.992;4.498;2022-09-09T00:53:19;100804.63;;;14.47;100.00
60437;BME280;46289;51.992;4.498;2022-09-09T00:55:56;100806.41;;;14.44;100.00
60437;BME280;46289;51.992;4.498;2022-09-09T00:58:29;100801.97;;;14.41;100.00
60437;BME280;46289;51.992;4.498;2022-09-09T01:01:04;100808.16;;;14.42;100.00
60437;BME280;46289;51.992;4.498;2022-09-09T01:03:37;100802.88;;;14.38;100.00
60437;BME280;46289;51.992;4.498;2022-09-09T01:06:14;100798.47;;;14.39;100.00
60437;BME280;46289;51.992;4.498;2022-09-09T01:09:08;100793.19;;;14.37;100.00
60437;BME280;46289;51.992;4.498;2022-09-09T01:11:49;100795.84;;;14.36;100.00
60437;BME280;46289;51.992;4.498;2022-09-09T01:14:32;100790.56;;;14.37;100.00
60437;BME280;46289;51.992;4.498;2022-09-09T01:17:14;100788.78;;;14.39;100.00
60437;BME280;46289;51.992;4.498;2022-09-09T01:20:02;100796.69;;;14.41;100.00
60437;BME280;46289;51.992;4.498;2022-09-09T01:22:38;100783.53;;;14.44;100.00
60437;BME280;46289;51.992;4.498;2022-09-09T01:25:26;100783.50;;;14.49;100.00
60437;BME280;46289;51.992;4.498;2022-09-09T01:28:03;100773.84;;;14.48;100.00
60437;BME280;46289;51.992;4.498;2022-09-09T01:30:39;100779.13;;;14.48;100.00
60437;BME280;46289;51.992;4.498;2022-09-09T01:33:13;100784.41;;;14.43;100.00
60437;BME280;46289;51.992;4.498;2022-09-09T01:35:48;100776.47;;;14.40;100.00
60437;BME280;46289;51.992;4.498;2022-09-09T01:38:21;100780.00;;;14.36;100.00
60437;BME280;46289;51.992;4.498;2022-09-09T01:40:53;100773.84;;;14.37;100.00
60437;BME280;46289;51.992;4.498;2022-09-09T01:43:28;100765.06;;;14.36;100.00
60437;BME280;46289;51.992;4.498;2022-09-09T01:46:00;100763.31;;;14.34;100.00
60437;BME280;46289;51.992;4.498;2022-09-09T01:48:30;100765.06;;;14.35;100.00
60437;BME280;46289;51.992;4.498;2022-09-09T01:51:00;100761.53;;;14.33;100.00
60437;BME280;46289;51.992;4.498;2022-09-09T01:53:30;100765.94;;;14.34;100.00
60437;BME280;46289;51.992;4.498;2022-09-09T01:56:07;100765.94;;;14.34;100.00
60437;BME280;46289;51.992;4.498;2022-09-09T01:58:53;100765.94;;;14.31;100.00
60437;BME280;46289;51.992;4.498;2022-09-09T02:01:36;100772.09;;;14.30;100.00
60437;BME280;46289;51.992;4.498;2022-09-09T02:04:18;100758.91;;;14.30;100.00
60437;BME280;46289;51.992;4.498;2022-09-09T02:06:55;100755.41;;;14.26;100.00
60437;BME280;46289;51.992;4.498;2022-09-09T02:09:26;100760.69;;;14.25;100.00
60437;BME280;46289;51.992;4.498;2022-09-09T02:11:59;100761.56;;;14.24;100.00
60437;BME280;46289;51.992;4.498;2022-09-09T02:14:36;100748.41;;;14.19;100.00
60437;BME280;46289;51.992;4.498;2022-09-09T02:17:10;100744.00;;;14.18;100.00
60437;BME280;46289;51.992;4.498;2022-09-09T02:19:43;100745.75;;;14.18;100.00
60437;BME280;46289;51.992;4.498;2022-09-09T02:22:17;100747.53;;;14.16;100.00
60437;BME280;46289;51.992;4.498;2022-09-09T02:24:50;100748.41;;;14.18;100.00
60437;BME280;46289;51.992;4.498;2022-09-09T02:27:22;100744.00;;;14.18;100.00
60437;BME280;46289;51.992;4.498;2022-09-09T02:29:56;100736.09;;;14.20;100.00
60437;BME280;46289;51.992;4.498;2022-09-09T02:32:30;100729.94;;;14.21;100.00
60437;BME280;46289;51.992;4.498;2022-09-09T02:35:05;100721.13;;;14.23;100.00
60437;BME280;46289;51.992;4.498;2022-09-09T02:37:40;100727.28;;;14.22;100.00
60437;BME280;46289;51.992;4.498;2022-09-09T02:40:13;100722.88;;;14.23;100.00
60437;BME280;46289;51.992;4.498;2022-09-09T02:42:45;100724.66;;;14.19;100.00
60437;BME280;46289;51.992;4.498;2022-09-09T02:45:20;100727.28;;;14.24;100.00
60437;BME280;46289;51.992;4.498;2022-09-09T02:48:00;100726.41;;;14.22;100.00
60437;BME280;46289;51.992;4.498;2022-09-09T02:50:34;100728.19;;;14.18;100.00
60437;BME280;46289;51.992;4.498;2022-09-09T02:53:09;100732.56;;;14.18;100.00
60437;BME280;46289;51.992;4.498;2022-09-09T02:55:47;100725.53;;;14.17;100.00
60437;BME280;46289;51.992;4.498;2022-09-09T02:58:18;100729.06;;;14.16;100.00
60437;BME280;46289;51.992;4.498;2022-09-09T03:00:51;100729.03;;;14.23;100.00
60437;BME280;46289;51.992;4.498;2022-09-09T03:03:21;100722.00;;;14.24;100.00
60437;BME280;46289;51.992;4.498;2022-09-09T03:05:50;100718.47;;;14.31;100.00
60437;BME280;46289;51.992;4.498;2022-09-09T03:08:20;100719.34;;;14.33;100.00
60437;BME280;46289;51.992;4.498;2022-09-09T03:10:50;100710.53;;;14.34;100.00
60437;BME280;46289;51.992;4.498;2022-09-09T03:13:20;100708.75;;;14.39;100.00
60437;BME280;46289;51.992;4.498;2022-09-09T03:15:52;100713.16;;;14.40;100.00
60437;BME280;46289;51.992;4.498;2022-09-09T03:18:22;100703.50;;;14.42;100.00
60437;BME280;46289;51.992;4.498;2022-09-09T03:20:52;100696.47;;;14.43;100.00
60437;BME280;46289;51.992;4.498;2022-09-09T03:23:24;100707.00;;;14.38;100.00
60437;BME280;46289;51.992;4.498;2022-09-09T03:25:54;100707.00;;;14.38;100.00
60437;BME280;46289;51.992;4.498;2022-09-09T03:28:25;100707.88;;;14.40;100.00
60437;BME280;46289;51.992;4.498;2022-09-09T03:31:01;100708.78;;;14.42;100.00
60437;BME280;46289;51.992;4.498;2022-09-09T03:33:31;100701.72;;;14.41;100.00
60437;BME280;46289;51.992;4.498;2022-09-09T03:36:03;100704.38;;;14.44;100.00
60437;BME280;46289;51.992;4.498;2022-09-09T03:38:34;100699.06;;;14.41;100.00
60437;BME280;46289;51.992;4.498;2022-09-09T03:41:04;100692.94;;;14.42;100.00
60437;BME280;46289;51.992;4.498;2022-09-09T03:43:34;100701.75;;;14.43;100.00
60437;BME280;46289;51.992;4.498;2022-09-09T03:46:07;100703.47;;;14.40;100.00
60437;BME280;46289;51.992;4.498;2022-09-09T03:48:36;100707.88;;;14.40;100.00
60437;BME280;46289;51.992;4.498;2022-09-09T03:51:06;100709.63;;;14.39;100.00
60437;BME280;46289;51.992;4.498;2022-09-09T03:53:37;100706.13;;;14.42;100.00
60437;BME280;46289;51.992;4.498;2022-09-09T03:56:07;100706.13;;;14.37;100.00
60437;BME280;46289;51.992;4.498;2022-09-09T03:58:37;100706.13;;;14.42;100.00
60437;BME280;46289;51.992;4.498;2022-09-09T04:01:11;100699.97;;;14.40;100.00
60437;BME280;46289;51.992;4.498;2022-09-09T04:03:44;100690.28;;;14.39;100.00
60437;BME280;46289;51.992;4.498;2022-09-09T04:06:14;100693.81;;;14.39;100.00
60437;BME280;46289;51.992;4.498;2022-09-09T04:08:44;100694.72;;;14.42;100.00
60437;BME280;46289;51.992;4.498;2022-09-09T04:11:15;100696.44;;;14.41;100.00
60437;BME280;46289;51.992;4.498;2022-09-09T04:13:45;100697.34;;;14.37;100.00
60437;BME280;46289;51.992;4.498;2022-09-09T04:16:18;100689.41;;;14.38;100.00
60437;BME280;46289;51.992;4.498;2022-09-09T04:18:48;100687.66;;;14.39;100.00
60437;BME280;46289;51.992;4.498;2022-09-09T04:21:19;100679.75;;;14.42;100.00
60437;BME280;46289;51.992;4.498;2022-09-09T04:23:48;100677.09;;;14.39;100.00
60437;BME280;46289;51.992;4.498;2022-09-09T04:26:18;100670.97;;;14.34;100.00
60437;BME280;46289;51.992;4.498;2022-09-09T04:28:48;100664.81;;;14.35;100.00
60437;BME280;46289;51.992;4.498;2022-09-09T04:31:21;100671.84;;;14.33;100.00
60437;BME280;46289;51.992;4.498;2022-09-09T04:33:53;100674.50;;;14.28;100.00
60437;BME280;46289;51.992;4.498;2022-09-09T04:36:22;100674.50;;;14.30;100.00
60437;BME280;46289;51.992;4.498;2022-09-09T04:38:53;100657.81;;;14.28;100.00
60437;BME280;46289;51.992;4.498;2022-09-09T04:41:23;100662.22;;;14.26;100.00
60437;BME280;46289;51.992;4.498;2022-09-09T04:43:55;100660.44;;;14.25;100.00
60437;BME280;46289;51.992;4.498;2022-09-09T04:46:28;100664.88;;;14.20;100.00
60437;BME280;46289;51.992;4.498;2022-09-09T04:48:58;100664.88;;;14.17;100.00
60437;BME280;46289;51.992;4.498;2022-09-09T04:51:28;100658.72;;;14.18;100.00
60437;BME280;46289;51.992;4.498;2022-09-09T04:53:57;100665.78;;;14.16;100.00
60437;BME280;46289;51.992;4.498;2022-09-09T04:56:27;100662.28;;;14.11;100.00
60437;BME280;46289;51.992;4.498;2022-09-09T04:58:57;100652.63;;;14.08;100.00
60437;BME280;46289;51.992;4.498;2022-09-09T05:01:32;100663.16;;;14.11;100.00
60437;BME280;46289;51.992;4.498;2022-09-09T05:04:03;100659.66;;;14.07;100.00
60437;BME280;46289;51.992;4.498;2022-09-09T05:06:36;100658.81;;;13.98;100.00
60437;BME280;46289;51.992;4.498;2022-09-09T05:09:07;100664.94;;;14.01;100.00
60437;BME280;46289;51.992;4.498;2022-09-09T05:11:38;100665.84;;;13.97;100.00
60437;BME280;46289;51.992;4.498;2022-09-09T05:14:08;100668.47;;;13.97;100.00
60437;BME280;46289;51.992;4.498;2022-09-09T05:16:41;100665.84;;;13.94;100.00
60437;BME280;46289;51.992;4.498;2022-09-09T05:19:11;100657.94;;;13.96;100.00
60437;BME280;46289;51.992;4.498;2022-09-09T05:21:41;100656.19;;;13.95;100.00
60437;BME280;46289;51.992;4.498;2022-09-09T05:24:11;100650.03;;;13.96;100.00
60437;BME280;46289;51.992;4.498;2022-09-09T05:26:41;100649.13;;;14.03;100.00
60437;BME280;46289;51.992;4.498;2022-09-09T05:29:11;100639.44;;;14.06;100.00
60437;BME280;46289;51.992;4.498;2022-09-09T05:31:43;100649.09;;;14.11;100.00
60437;BME280;46289;51.992;4.498;2022-09-09T05:34:14;100644.69;;;14.13;100.00
60437;BME280;46289;51.992;4.498;2022-09-09T05:36:43;100651.69;;;14.20;100.00
60437;BME280;46289;51.992;4.498;2022-09-09T05:39:13;100651.66;;;14.26;100.00
60437;BME280;46289;51.992;4.498;2022-09-09T05:41:43;100654.25;;;14.32;100.00
60437;BME280;46289;51.992;4.498;2022-09-09T05:44:13;100662.16;;;14.35;100.00
60437;BME280;46289;51.992;4.498;2022-09-09T05:46:45;100668.31;;;14.37;100.00
60437;BME280;46289;51.992;4.498;2022-09-09T05:49:16;100663.91;;;14.48;100.00
60437;BME280;46289;51.992;4.498;2022-09-09T05:51:46;100665.66;;;14.49;100.00
60437;BME280;46289;51.992;4.498;2022-09-09T05:54:17;100662.03;;;14.62;100.00
60437;BME280;46289;51.992;4.498;2022-09-09T05:56:47;100669.91;;;14.68;100.00
60437;BME280;46289;51.992;4.498;2022-09-09T05:59:18;100661.97;;;14.71;100.00
60437;BME280;46289;51.992;4.498;2022-09-09T06:01:52;100667.25;;;14.71;100.00
60437;BME280;46289;51.992;4.498;2022-09-09T06:04:22;100664.50;;;14.88;100.00
60437;BME280;46289;51.992;4.498;2022-09-09T06:06:54;100664.47;;;14.90;100.00
60437;BME280;46289;51.992;4.498;2022-09-09T06:09:24;100673.28;;;14.90;100.00
60437;BME280;46289;51.992;4.498;2022-09-09T06:11:53;100671.47;;;14.95;100.00
60437;BME280;46289;51.992;4.498;2022-09-09T06:14:27;100668.81;;;14.97;100.00
60437;BME280;46289;51.992;4.498;2022-09-09T06:17:00;100669.72;;;14.96;100.00
60437;BME280;46289;51.992;4.498;2022-09-09T06:19:30;100668.81;;;14.97;100.00
60437;BME280;46289;51.992;4.498;2022-09-09T06:22:00;100667.91;;;15.02;100.00
60437;BME280;46289;51.992;4.498;2022-09-09T06:24:31;100660.81;;;15.08;100.00
60437;BME280;46289;51.992;4.498;2022-09-09T06:27:01;100670.50;;;15.07;100.00
60437;BME280;46289;51.992;4.498;2022-09-09T06:29:32;100668.72;;;15.12;100.00
60437;BME280;46289;51.992;4.498;2022-09-09T06:32:05;100669.56;;;15.16;100.00
60437;BME280;46289;51.992;4.498;2022-09-09T06:34:35;100666.09;;;15.11;100.00
60437;BME280;46289;51.992;4.498;2022-09-09T06:37:05;100672.25;;;15.08;100.00
60437;BME280;46289;51.992;4.498;2022-09-09T06:39:35;100664.28;;;15.16;100.00
60437;BME280;46289;51.992;4.498;2022-09-09T06:42:05;100663.34;;;15.21;100.00
60437;BME280;46289;51.992;4.498;2022-09-09T06:44:35;100665.09;;;15.24;100.00
60437;BME280;46289;51.992;4.498;2022-09-09T06:47:07;100663.38;;;15.18;100.00
60437;BME280;46289;51.992;4.498;2022-09-09T06:49:37;100671.28;;;15.21;100.00
60437;BME280;46289;51.992;4.498;2022-09-09T06:52:12;100667.72;;;15.27;100.00
60437;BME280;46289;51.992;4.498;2022-09-09T06:54:42;100667.75;;;15.22;100.00
60437;BME280;46289;51.992;4.498;2022-09-09T06:57:11;100665.84;;;15.36;100.00
60437;BME280;46289;51.992;4.498;2022-09-09T07:00:02;100661.47;;;15.35;100.00
60437;BME280;46289;51.992;4.498;2022-09-09T07:02:35;100675.53;;;15.37;100.00
60437;BME280;46289;51.992;4.498;2022-09-09T07:05:07;100670.25;;;15.39;100.00
60437;BME280;46289;51.992;4.498;2022-09-09T07:07:37;100671.94;;;15.46;100.00
60437;BME280;46289;51.992;4.498;2022-09-09T07:10:08;100664.00;;;15.46;100.00
60437;BME280;46289;51.992;4.498;2022-09-09T07:12:38;100665.78;;;15.46;100.00
60437;BME280;46289;51.992;4.498;2022-09-09T07:15:09;100662.25;;;15.47;100.00
60437;BME280;46289;51.992;4.498;2022-09-09T07:17:42;100659.66;;;15.41;100.00
60437;BME280;46289;51.992;4.498;2022-09-09T07:20:13;100665.75;;;15.47;100.00
60437;BME280;46289;51.992;4.498;2022-09-09T07:22:43;100663.16;;;15.43;100.00
60437;BME280;46289;51.992;4.498;2022-09-09T07:25:14;100662.22;;;15.48;100.00
60437;BME280;46289;51.992;4.498;2022-09-09T07:27:45;100662.25;;;15.45;100.00
60437;BME280;46289;51.992;4.498;2022-09-09T07:30:15;100660.56;;;15.36;100.00
60437;BME280;46289;51.992;4.498;2022-09-09T07:32:55;100663.22;;;15.36;100.00
60437;BME280;46289;51.992;4.498;2022-09-09T07:35:29;100657.94;;;15.36;100.00
60437;BME280;46289;51.992;4.498;2022-09-09T07:38:00;100658.84;;;15.34;100.00
60437;BME280;46289;51.992;4.498;2022-09-09T07:40:36;100658.75;;;15.43;100.00
60437;BME280;46289;51.992;4.498;2022-09-09T07:43:06;100668.47;;;15.40;100.00
60437;BME280;46289;51.992;4.498;2022-09-09T07:45:41;100667.56;;;15.42;100.00
60437;BME280;46289;51.992;4.498;2022-09-09T07:48:13;100671.09;;;15.41;100.00
60437;BME280;46289;51.992;4.498;2022-09-09T07:50:44;100671.94;;;15.48;100.00
60437;BME280;46289;51.992;4.498;2022-09-09T07:53:14;100669.25;;;15.51;100.00
60437;BME280;46289;51.992;4.498;2022-09-09T07:55:46;100668.41;;;15.49;100.00
60437;BME280;46289;51.992;4.498;2022-09-09T07:58:16;100666.59;;;15.54;100.00
60437;BME280;46289;51.992;4.498;2022-09-09T08:00:45;100668.34;;;15.55;100.00
60437;BME280;46289;51.992;4.498;2022-09-09T08:03:19;100666.50;;;15.61;100.00
60437;BME280;46289;51.992;4.498;2022-09-09T08:05:49;100664.72;;;15.65;100.00
60437;BME280;46289;51.992;4.498;2022-09-09T08:08:19;100670.03;;;15.62;100.00
60437;BME280;46289;51.992;4.498;2022-09-09T08:10:49;100669.13;;;15.64;100.00
60437;BME280;46289;51.992;4.498;2022-09-09T08:13:19;100666.47;;;15.66;100.00
60437;BME280;46289;51.992;4.498;2022-09-09T08:15:49;100667.31;;;15.69;100.00
60437;BME280;46289;51.992;4.498;2022-09-09T08:18:26;100662.03;;;15.68;100.00
60437;BME280;46289;51.992;4.498;2022-09-09T08:20:56;100670.00;;;15.65;100.00
60437;BME280;46289;51.992;4.498;2022-09-09T08:23:28;100673.47;;;15.70;100.00
60437;BME280;46289;51.992;4.498;2022-09-09T08:26:03;100684.03;;;15.70;100.00
60437;BME280;46289;51.992;4.498;2022-09-09T08:28:34;100669.94;;;15.71;100.00
60437;BME280;46289;51.992;4.498;2022-09-09T08:31:08;100678.72;;;15.75;100.00
60437;BME280;46289;51.992;4.498;2022-09-09T08:33:42;100678.69;;;15.76;100.00
60437;BME280;46289;51.992;4.498;2022-09-09T08:36:14;100675.13;;;15.79;100.00
60437;BME280;46289;51.992;4.498;2022-09-09T08:38:47;100675.97;;;15.84;100.00
60437;BME280;46289;51.992;4.498;2022-09-09T08:41:35;100696.28;;;15.80;100.00
60437;BME280;46289;51.992;4.498;2022-09-09T08:44:12;100670.72;;;15.79;100.00
60437;BME280;46289;51.992;4.498;2022-09-09T08:46:50;100676.00;;;15.79;100.00
60437;BME280;46289;51.992;4.498;2022-09-09T08:49:48;100675.97;;;15.82;100.00
60437;BME280;46289;51.992;4.498;2022-09-09T08:52:27;100683.03;;;15.82;100.00
60437;BME280;46289;51.992;4.498;2022-09-09T08:55:05;100684.81;;;15.81;100.00
60437;BME280;46289;51.992;4.498;2022-09-09T08:57:41;100675.09;;;15.82;100.00
60437;BME280;46289;51.992;4.498;2022-09-09T09:00:12;100686.50;;;15.87;100.00
60437;BME280;46289;51.992;4.498;2022-09-09T09:02:48;100682.06;;;15.90;100.00
60437;BME280;46289;51.992;4.498;2022-09-09T09:05:32;100690.91;;;15.89;100.00
60437;BME280;46289;51.992;4.498;2022-09-09T09:08:16;100692.66;;;15.90;100.00
60437;BME280;46289;51.992;4.498;2022-09-09T09:10:50;100697.06;;;15.90;100.00
60437;BME280;46289;51.992;4.498;2022-09-09T09:13:26;100696.19;;;15.89;100.00
60437;BME280;46289;51.992;4.498;2022-09-09T09:16:03;100690.84;;;15.92;100.00
60437;BME280;46289;51.992;4.498;2022-09-09T09:18:37;100689.09;;;15.91;100.00
60437;BME280;46289;51.992;4.498;2022-09-09T09:21:12;100696.19;;;15.89;100.00
60437;BME280;46289;51.992;4.498;2022-09-09T09:23:57;100701.50;;;15.86;100.00
60437;BME280;46289;51.992;4.498;2022-09-09T09:26:31;100690.94;;;15.86;100.00
60437;BME280;46289;51.992;4.498;2022-09-09T09:29:10;100689.09;;;15.91;100.00
60437;BME280;46289;51.992;4.498;2022-09-09T09:31:44;100695.09;;;16.07;100.00
60437;BME280;46289;51.992;4.498;2022-09-09T09:34:15;100680.06;;;16.11;100.00
60437;BME280;46289;51.992;4.498;2022-09-09T09:36:53;100679.88;;;16.26;100.00
60437;BME280;46289;51.992;4.498;2022-09-09T09:39:26;100684.25;;;16.30;100.00
60437;BME280;46289;51.992;4.498;2022-09-09T09:42:17;100680.00;;;16.17;100.00
60437;BME280;46289;51.992;4.498;2022-09-09T09:44:49;100671.09;;;16.24;100.00
60437;BME280;46289;51.992;4.498;2022-09-09T09:47:20;100678.09;;;16.28;100.00
60437;BME280;46289;51.992;4.498;2022-09-09T09:49:51;100675.41;;;16.31;100.00
60437;BME280;46289;51.992;4.498;2022-09-09T09:52:26;100666.44;;;16.43;100.00
60437;BME280;46289;51.992;4.498;2022-09-09T09:54:57;100666.25;;;16.56;100.00
60437;BME280;46289;51.992;4.498;2022-09-09T09:57:33;100663.28;;;16.79;100.00
60437;BME280;46289;51.992;4.498;2022-09-09T10:00:13;100670.09;;;16.95;100.00
60437;BME280;46289;51.992;4.498;2022-09-09T10:02:45;100668.84;;;16.59;100.00
60437;BME280;46289;51.992;4.498;2022-09-09T10:05:19;100670.75;;;16.50;100.00
60437;BME280;46289;51.992;4.498;2022-09-09T10:08:14;100661.97;;;16.46;100.00
60437;BME280;46289;51.992;4.498;2022-09-09T10:11:02;100662.91;;;16.44;100.00
60437;BME280;46289;51.992;4.498;2022-09-09T10:13:42;100673.66;;;16.30;100.00
60437;BME280;46289;51.992;4.498;2022-09-09T10:16:25;100674.69;;;16.18;100.00
60437;BME280;46289;51.992;4.498;2022-09-09T10:19:04;100677.44;;;16.09;100.00
60437;BME280;46289;51.992;4.498;2022-09-09T10:25:04;100673.97;;;16.06;100.00
60437;BME280;46289;51.992;4.498;2022-09-09T10:27:47;100678.22;;;16.17;100.00
60437;BME280;46289;51.992;4.498;2022-09-09T10:30:30;100666.53;;;16.37;100.00
60437;BME280;46289;51.992;4.498;2022-09-09T10:33:07;100668.97;;;16.50;100.00
60437;BME280;46289;51.992;4.498;2022-09-09T10:35:43;100686.56;;;16.56;100.00
60437;BME280;46289;51.992;4.498;2022-09-09T10:38:17;100683.00;;;16.57;100.00
60437;BME280;46289;51.992;4.498;2022-09-09T10:41:05;100677.38;;;16.80;100.00
60437;BME280;46289;51.992;4.498;2022-09-09T10:43:51;100668.88;;;16.58;100.00
60437;BME280;46289;51.992;4.498;2022-09-09T10:46:33;100678.66;;;16.53;100.00
60437;BME280;46289;51.992;4.498;2022-09-09T10:49:17;100671.59;;;16.53;100.00
60437;BME280;46289;51.992;4.498;2022-09-09T10:51:56;100676.06;;;16.48;100.00
60437;BME280;46289;51.992;4.498;2022-09-09T10:54:46;100677.78;;;16.52;100.00
60437;BME280;46289;51.992;4.498;2022-09-09T10:57:29;100671.63;;;16.50;100.00
60437;BME280;46289;51.992;4.498;2022-09-09T11:00:04;100667.94;;;16.62;100.00
60437;BME280;46289;51.992;4.498;2022-09-09T11:02:34;100663.38;;;16.72;100.00
60437;BME280;46289;51.992;4.498;2022-09-09T11:05:15;100668.16;;;17.05;100.00
60437;BME280;46289;51.992;4.498;2022-09-09T11:07:50;100664.22;;;17.30;100.00
60437;BME280;46289;51.992;4.498;2022-09-09T11:10:28;100670.81;;;17.57;100.00
60437;BME280;46289;51.992;4.498;2022-09-09T11:13:10;100664.72;;;17.52;100.00
60437;BME280;46289;51.992;4.498;2022-09-09T11:15:45;100670.09;;;17.48;100.00
60437;BME280;46289;51.992;4.498;2022-09-09T11:18:19;100664.53;;;17.63;100.00
60437;BME280;46289;51.992;4.498;2022-09-09T11:20:53;100671.16;;;17.87;100.00
60437;BME280;46289;51.992;4.498;2022-09-09T11:23:31;100674.53;;;17.95;100.00
60437;BME280;46289;51.992;4.498;2022-09-09T11:26:13;100667.53;;;17.91;100.00
60437;BME280;46289;51.992;4.498;2022-09-09T11:28:59;100666.47;;;18.00;100.00
60437;BME280;46289;51.992;4.498;2022-09-09T11:31:43;100670.16;;;17.92;100.00
60437;BME280;46289;51.992;4.498;2022-09-09T11:34:26;100676.84;;;17.67;100.00
60437;BME280;46289;51.992;4.498;2022-09-09T11:37:44;100680.47;;;17.61;100.00
60437;BME280;46289;51.992;4.498;2022-09-09T11:40:21;100674.56;;;17.46;100.00
60437;BME280;46289;51.992;4.498;2022-09-09T11:43:03;100674.09;;;17.21;100.00
60437;BME280;46289;51.992;4.498;2022-09-09T11:45:36;100674.88;;;17.27;100.00
60437;BME280;46289;51.992;4.498;2022-09-09T11:48:23;100676.94;;;17.09;100.00
60437;BME280;46289;51.992;4.498;2022-09-09T11:50:59;100690.34;;;16.99;100.00
60437;BME280;46289;51.992;4.498;2022-09-09T11:53:32;100686.81;;;16.99;100.00
60437;BME280;46289;51.992;4.498;2022-09-09T11:56:08;100694.84;;;16.93;100.00
60437;BME280;46289;51.992;4.498;2022-09-09T11:58:53;100684.66;;;16.65;100.00
60437;BME280;46289;51.992;4.498;2022-09-09T12:01:44;100676.16;;;16.42;100.00
60437;BME280;46289;51.992;4.498;2022-09-09T12:04:25;100681.47;;;16.41;100.00
60437;BME280;46289;51.992;4.498;2022-09-09T12:07:03;100676.16;;;16.42;100.00
60437;BME280;46289;51.992;4.498;2022-09-09T12:09:43;100688.44;;;16.46;100.00
60437;BME280;46289;51.992;4.498;2022-09-09T12:12:28;100687.38;;;16.59;100.00
60437;BME280;46289;51.992;4.498;2022-09-09T12:17:49;100685.59;;;16.61;100.00
60437;BME280;46289;51.992;4.498;2022-09-09T12:20:21;100684.69;;;16.62;100.00
60437;BME280;46289;51.992;4.498;2022-09-09T12:23:12;100680.22;;;16.67;100.00
60437;BME280;46289;51.992;4.498;2022-09-09T12:29:05;100687.63;;;16.41;100.00
60437;BME280;46289;51.992;4.498;2022-09-09T12:31:44;100693.78;;;16.43;100.00
60437;BME280;46289;51.992;4.498;2022-09-09T12:34:29;100698.88;;;16.58;100.00
60437;BME280;46289;51.992;4.498;2022-09-09T12:37:06;100689.31;;;16.48;100.00
60437;BME280;46289;51.992;4.498;2022-09-09T12:39:49;100700.63;;;16.59;100.00
60437;BME280;46289;51.992;4.498;2022-09-09T12:42:22;100694.47;;;16.57;100.00
60437;BME280;46289;51.992;4.498;2022-09-09T12:44:56;100704.13;;;16.61;100.00
60437;BME280;46289;51.992;4.498;2022-09-09T12:47:33;100685.50;;;16.67;100.00
60437;BME280;46289;51.992;4.498;2022-09-09T12:50:19;100698.84;;;16.61;100.00
60437;BME280;46289;51.992;4.498;2022-09-09T12:52:55;100692.63;;;16.62;100.00
60437;BME280;46289;51.992;4.498;2022-09-09T12:55:30;100691.69;;;16.66;100.00
60437;BME280;46289;51.992;4.498;2022-09-09T12:58:01;100694.31;;;16.68;100.00
60437;BME280;46289;51.992;4.498;2022-09-09T13:00:33;100696.16;;;16.64;100.00
60437;BME280;46289;51.992;4.498;2022-09-09T13:03:17;100698.78;;;16.66;100.00
60437;BME280;46289;51.992;4.498;2022-09-09T13:05:50;100696.59;;;16.94;100.00
60437;BME280;46289;51.992;4.498;2022-09-09T13:08:20;100693.88;;;16.98;100.00
60437;BME280;46289;51.992;4.498;2022-09-09T13:10:54;100691.88;;;17.14;100.00
60437;BME280;46289;51.992;4.498;2022-09-09T13:13:30;100687.41;;;17.16;100.00
60437;BME280;46289;51.992;4.498;2022-09-09T13:16:06;100687.16;;;17.31;100.00
60437;BME280;46289;51.992;4.498;2022-09-09T13:18:40;100686.81;;;17.53;100.00
60437;BME280;46289;51.992;4.498;2022-09-09T13:21:13;100693.69;;;17.66;100.00
60437;BME280;46289;51.992;4.498;2022-09-09T13:23:49;100705.44;;;17.97;100.00
60437;BME280;46289;51.992;4.498;2022-09-09T13:26:22;100707.31;;;17.92;100.00
60437;BME280;46289;51.992;4.498;2022-09-09T13:28:53;100714.13;;;18.06;100.00